Boise, ID (83722)

7:41 PM MST on February 19, 2017 (GMT -0700)
Sunset | | Change Station

Elev 2777 ft 43.62 °N, 116.20 °W | Updated 22 seconds ago

Mostly Cloudy
Mostly Cloudy
40.7 °F
Feels Like 41 °F
N
0.0
Wind Variable Wind from SSE

Today
High -- | Low -- °F
--% Chance of Precip.
Yesterday
High -- | Low -- °F
Precip. -- in
Pressure 29.76 in
Visibility 10.0 miles
Clouds Few 7000 ft
Scattered Clouds 9000 ft
Windchill 41 °F
Dew Point 38 °F
Humidity 90%
Rainfall 0.07 in
Snow Depth Not available.
7:36 AM 6:21 PM
Last Quarter, 38% visible
METAR KBOI 200153Z AUTO 02004KT 10SM FEW070 SCT090 07/02 A2975 RMK AO2 RAE38 SLP077 P0001 T00670022
Pressure 29.76 in
Visibility 10.0 miles
Clouds Few 7000 ft
Scattered Clouds 9000 ft
Windchill 41 °F
Dew Point 38 °F
Humidity 90%
Rainfall 0.07 in
Snow Depth Not available.
7:36 AM 6:21 PM
Last Quarter, 38% visible
METAR KBOI 200153Z AUTO 02004KT 10SM FEW070 SCT090 07/02 A2975 RMK AO2 RAE38 SLP077 P0001 T00670022

Get Your Daily Forecast Email!

Thanks for signing up!

Be on the lookout for a verification email in your inbox.

You'll start receiving the daily forecast at 8 AM.

×

10-Day Weather Forecast

Almanac

Astronomy

Feb. 19, 2017 Rise Set
Actual Time
Civil Twilight
Nautical Twilight
Astronomical Twilight
Moon
Length of Visible Light
Length of Day
Tomorrow will be .
, % of the Moon is Illuminated

Today's Extremes

State Highs State Lows

Community

WunderPhotos

Upload Photos

1,962,540 photos uploaded!

WunderBlog® & News

Nearby

Air Quality

  Air Quality AQ Index Pollutant
Not available.

Snow Depth

Station Depth Elevation

Earthquake Activity

City Distance Mag. Time & Date
Minimum magnitude displayed is 2.5.

Coastal Water Temperatures

Place Temperature

Stations

Nearby Weather Stations

Station Location Temp. Windchill Dew Point Humidity Wind Precip. Elev Updated Type
                   

Watches & Warnings

There are currently no watches in effect.